Time;durP1;ratioP1;P1;durP2;ratioP2;P2;SDS_P1;SDS_P2;PMS_P1;PMS_P2;Temp;Humidity;BMP_temperature;BMP_pressure;BME280_temperature;BME280_humidity;BME280_pressure;Samples;Min_cycle;Max_cycle;Signal;HPM_P1;HPM_P2
2021/12/29 00:01:15;;;;;;;0.50;0.10;;;9.50;1.00;;;;;;5053352;28;20486;-75
2021/12/29 00:03:44;;;;;;;0.50;0.10;;;9.60;1.00;;;;;;5053370;28;20948;-75
2021/12/29 00:06:12;;;;;;;0.50;0.10;;;9.60;1.00;;;;;;5053169;28;20456;-74
2021/12/29 00:08:40;;;;;;;0.50;0.10;;;9.60;1.00;;;;;;5064499;28;20453;-75
2021/12/29 00:11:08;;;;;;;0.50;0.20;;;9.60;1.00;;;;;;5074470;28;20994;-74
2021/12/29 00:13:36;;;;;;;0.50;0.10;;;9.60;1.00;;;;;;5073864;28;20453;-74
2021/12/29 00:16:05;;;;;;;1.03;0.30;;;9.60;1.00;;;;;;5074109;28;20541;-74
2021/12/29 00:18:35;;;;;;;0.50;0.10;;;9.60;1.00;;;;;;5073500;28;20453;-74
2021/12/29 00:21:06;;;;;;;0.50;0.10;;;9.60;1.00;;;;;;5072828;28;20519;-74
2021/12/29 00:23:34;;;;;;;0.53;0.27;;;9.60;1.00;;;;;;5054663;28;20964;-74
2021/12/29 00:26:22;;;;;;;1.13;0.40;;;9.60;1.00;;;;;;5052730;28;20442;-75
2021/12/29 00:28:50;;;;;;;0.97;0.57;;;9.60;1.00;;;;;;5053369;28;20445;-73
2021/12/29 00:31:18;;;;;;;0.70;0.30;;;9.70;1.00;;;;;;5052844;28;20553;-74
2021/12/29 00:33:46;;;;;;;0.50;0.10;;;9.70;1.00;;;;;;5061750;28;20499;-74
2021/12/29 00:36:15;;;;;;;0.50;0.20;;;9.70;1.00;;;;;;5070943;28;20532;-74
2021/12/29 00:38:43;;;;;;;0.50;0.20;;;9.70;1.00;;;;;;5074793;28;20441;-74
2021/12/29 00:41:11;;;;;;;0.50;0.10;;;9.80;1.00;;;;;;5073643;28;21037;-74
2021/12/29 00:43:39;;;;;;;0.50;0.10;;;9.80;1.00;;;;;;5071601;28;20449;-74
2021/12/29 00:46:08;;;;;;;0.50;0.10;;;9.80;1.00;;;;;;5072173;28;20452;-75
2021/12/29 00:48:39;;;;;;;0.50;0.10;;;;;;;;;;5057937;28;20976;-74
2021/12/29 00:51:07;;;;;;;0.50;0.20;;;9.80;1.00;;;;;;5052571;28;20468;-74
2021/12/29 00:53:38;;;;;;;0.50;0.10;;;9.90;1.00;;;;;;5052040;28;20565;-74
2021/12/29 00:56:06;;;;;;;0.50;0.10;;;9.90;1.00;;;;;;5052177;28;20450;-73
2021/12/29 00:58:34;;;;;;;0.50;0.10;;;10.00;1.00;;;;;;5052258;28;20446;-73
2021/12/29 01:01:04;;;;;;;0.53;0.33;;;10.00;1.00;;;;;;5053441;28;20543;-74
2021/12/29 01:03:34;;;;;;;0.50;0.10;;;;;;;;;;5075497;28;20449;-73
2021/12/29 01:06:03;;;;;;;0.50;0.10;;;10.00;1.00;;;;;;5073020;28;20451;-74
2021/12/29 01:08:31;;;;;;;0.50;0.10;;;10.10;1.00;;;;;;5072139;28;20642;-75
2021/12/29 01:11:00;;;;;;;0.50;0.10;;;10.10;1.00;;;;;;5072033;28;20480;-74
2021/12/29 01:13:31;;;;;;;0.50;0.10;;;10.10;1.00;;;;;;5072099;28;20993;-75
2021/12/29 01:16:36;;;;;;;1.17;0.73;;;10.20;1.00;;;;;;5063074;28;20457;-74
2021/12/29 01:18:57;;;;;;;0.50;0.20;;;10.20;1.00;;;;;;5052205;28;20449;-74
2021/12/29 01:21:25;;;;;;;0.63;0.20;;;10.20;1.00;;;;;;5052189;28;20474;-73
2021/12/29 01:23:53;;;;;;;0.50;0.10;;;10.10;1.00;;;;;;5052866;28;20461;-73
2021/12/29 01:26:22;;;;;;;0.77;0.77;;;10.10;1.00;;;;;;5052356;28;20453;-73
2021/12/29 01:28:50;;;;;;;0.50;0.10;;;10.00;1.00;;;;;;5052421;28;20529;-74
2021/12/29 01:31:18;;;;;;;0.67;0.67;;;10.00;1.00;;;;;;5071294;28;20469;-74
2021/12/29 01:33:46;;;;;;;0.50;0.10;;;10.00;1.00;;;;;;5072509;28;20450;-74
2021/12/29 01:36:14;;;;;;;0.50;0.10;;;10.00;1.00;;;;;;5072337;28;20452;-73
2021/12/29 01:38:42;;;;;;;0.50;0.10;;;10.00;1.00;;;;;;5072134;28;20460;-73
2021/12/29 01:41:10;;;;;;;0.50;0.13;;;10.10;1.00;;;;;;5072161;28;20477;-73
2021/12/29 01:43:39;;;;;;;1.23;0.30;;;10.00;1.00;;;;;;5067571;28;20543;-74
2021/12/29 01:46:07;;;;;;;0.97;0.73;;;10.00;1.00;;;;;;5051722;28;20438;-74
2021/12/29 01:48:35;;;;;;;0.50;0.10;;;;;;;;;;5052293;28;20450;-76
2021/12/29 01:51:04;;;;;;;0.50;0.20;;;10.00;1.00;;;;;;5052639;28;20465;-74
2021/12/29 01:53:33;;;;;;;0.50;0.10;;;9.90;1.00;;;;;;5059434;28;20856;-73
2021/12/29 01:56:01;;;;;;;0.60;0.30;;;9.90;1.00;;;;;;5073427;28;20951;-74
2021/12/29 01:58:29;;;;;;;0.50;0.10;;;10.00;1.00;;;;;;5075513;28;20433;-74
2021/12/29 02:01:00;;;;;;;0.50;0.20;;;9.90;1.00;;;;;;5075632;28;20466;-75
2021/12/29 02:03:28;;;;;;;0.50;0.20;;;9.90;1.00;;;;;;5075909;28;20463;-74
2021/12/29 02:05:56;;;;;;;0.50;0.10;;;;;;;;;;5075049;28;20444;-73
2021/12/29 02:08:24;;;;;;;0.50;0.10;;;9.90;1.00;;;;;;5063994;28;20816;-73
2021/12/29 02:10:56;;;;;;;1.00;0.20;;;9.90;1.00;;;;;;5055490;28;20465;-73
2021/12/29 02:13:24;;;;;;;0.50;0.10;;;9.90;1.00;;;;;;5055865;28;20440;-73
2021/12/29 02:15:52;;;;;;;0.50;0.13;;;9.90;1.00;;;;;;5055307;28;20438;-74
2021/12/29 02:18:21;;;;;;;0.50;0.10;;;10.10;1.00;;;;;;5057300;28;20697;-75
2021/12/29 02:20:53;;;;;;;0.50;0.10;;;9.80;1.00;;;;;;5055470;28;20450;-75
2021/12/29 02:23:28;;;;;;;0.50;0.10;;;9.80;1.00;;;;;;5055847;28;20478;-74
2021/12/29 02:25:58;;;;;;;0.50;0.20;;;9.80;1.00;;;;;;5055806;28;20454;-72
2021/12/29 02:28:29;;;;;;;0.50;0.10;;;9.80;1.00;;;;;;5065753;28;20455;-73
2021/12/29 02:30:58;;;;;;;0.50;0.10;;;9.80;1.00;;;;;;5074930;28;20555;-74
2021/12/29 02:33:27;;;;;;;0.50;0.10;;;9.80;1.00;;;;;;5075511;28;20441;-74
2021/12/29 02:35:57;;;;;;;0.50;0.10;;;9.70;1.00;;;;;;5072448;28;20452;-74
2021/12/29 02:38:28;;;;;;;0.50;0.20;;;9.70;1.00;;;;;;5070539;28;20461;-75
2021/12/29 02:40:58;;;;;;;0.50;0.10;;;9.70;1.00;;;;;;5078435;28;20479;-74
2021/12/29 02:43:27;;;;;;;0.50;0.10;;;9.70;1.00;;;;;;5075926;28;20575;-73
2021/12/29 02:45:59;;;;;;;0.50;0.10;;;9.70;1.00;;;;;;5075429;28;20975;-74
2021/12/29 02:48:29;;;;;;;0.70;0.63;;;9.80;1.00;;;;;;5079235;28;20865;-73
2021/12/29 02:51:00;;;;;;;0.50;0.10;;;9.80;1.00;;;;;;5083022;28;20472;-74
2021/12/29 02:53:28;;;;;;;4.20;0.30;;;9.80;1.00;;;;;;5082017;28;20448;-74
2021/12/29 02:55:57;;;;;;;0.50;0.10;;;;;;;;;;5074336;28;20442;-74
2021/12/29 02:58:25;;;;;;;0.50;0.10;;;9.80;1.00;;;;;;5061247;28;20453;-74
2021/12/29 03:00:57;;;;;;;0.70;0.30;;;9.80;1.00;;;;;;5062024;28;20846;-74
2021/12/29 03:03:27;;;;;;;0.50;0.10;;;8.20;1.00;;;;;;5060380;28;20482;-74
2021/12/29 03:05:55;;;;;;;2.00;0.83;;;9.80;1.00;;;;;;5065750;28;20452;-75
2021/12/29 03:08:26;;;;;;;0.50;0.20;;;9.80;1.00;;;;;;5077531;28;20482;-73
2021/12/29 03:10:54;;;;;;;0.50;0.20;;;9.80;1.00;;;;;;5080905;28;20457;-74
2021/12/29 03:13:23;;;;;;;0.50;0.10;;;9.80;1.00;;;;;;5081701;28;20448;-73
2021/12/29 03:15:51;;;;;;;0.93;0.57;;;9.70;1.00;;;;;;5074836;28;20514;-74
2021/12/29 03:18:20;;;;;;;0.50;0.10;;;9.70;1.00;;;;;;5062541;28;20473;-73
2021/12/29 03:20:48;;;;;;;0.50;0.10;;;9.70;1.00;;;;;;5061351;28;20458;-73
2021/12/29 03:23:17;;;;;;;0.50;0.20;;;9.70;1.00;;;;;;5059369;28;20493;-73
2021/12/29 03:25:48;;;;;;;0.50;0.20;;;9.70;1.00;;;;;;5064714;28;20515;-73
2021/12/29 03:28:17;;;;;;;1.00;0.67;;;9.70;1.00;;;;;;5081006;28;20437;-74
2021/12/29 03:30:48;;;;;;;0.50;0.10;;;9.70;1.00;;;;;;5082403;28;20457;-74
2021/12/29 03:33:16;;;;;;;0.50;0.10;;;9.70;1.00;;;;;;5083178;28;20468;-73
2021/12/29 03:35:47;;;;;;;1.50;1.40;;;9.70;1.00;;;;;;5077105;28;21027;-73
2021/12/29 03:38:17;;;;;;;0.50;0.10;;;9.80;1.00;;;;;;5063305;28;20446;-74
2021/12/29 03:40:47;;;;;;;0.50;0.10;;;9.80;1.00;;;;;;5078450;22;20506;-74
2021/12/29 03:43:15;;;;;;;0.50;0.10;;;9.80;1.00;;;;;;5053389;28;20488;-75
2021/12/29 03:45:45;;;;;;;0.60;0.20;;;9.80;1.00;;;;;;5052965;28;20456;-73
2021/12/29 03:48:16;;;;;;;0.60;0.30;;;9.90;1.00;;;;;;5053243;28;20974;-72
2021/12/29 03:50:46;;;;;;;0.50;0.10;;;9.90;1.00;;;;;;5069074;28;20850;-73
2021/12/29 03:53:15;;;;;;;0.50;0.10;;;9.90;1.00;;;;;;5073113;28;20809;-72
2021/12/29 03:55:43;;;;;;;0.60;0.20;;;9.90;1.00;;;;;;5072831;28;20449;-73
2021/12/29 03:58:13;;;;;;;0.50;0.10;;;10.00;1.00;;;;;;5072915;28;20452;-73
2021/12/29 04:00:41;;;;;;;0.50;0.10;;;10.00;1.00;;;;;;5072909;28;21003;-71
2021/12/29 04:03:09;;;;;;;0.50;0.10;;;10.00;1.00;;;;;;5073083;28;20494;-72
2021/12/29 04:05:38;;;;;;;1.17;0.87;;;10.00;1.00;;;;;;5072761;28;20446;-74
2021/12/29 04:08:05;;;;;;;0.50;0.30;;;10.00;1.00;;;;;;5072961;28;20526;-73
2021/12/29 04:10:34;;;;;;;0.50;0.10;;;10.00;1.00;;;;;;5072894;28;20464;-73
2021/12/29 04:13:02;;;;;;;0.60;0.20;;;10.00;1.00;;;;;;5072669;28;20437;-73
2021/12/29 04:15:31;;;;;;;0.50;0.10;;;10.00;1.00;;;;;;5072725;28;20433;-75
2021/12/29 04:18:03;;;;;;;0.63;0.57;;;10.00;1.00;;;;;;5072251;28;20449;-74
2021/12/29 04:23:20;;;;;;;0.50;0.10;;;10.10;1.00;;;;;;5069257;28;20473;-75
2021/12/29 04:25:52;;;;;;;0.50;0.10;;;10.10;1.00;;;;;;5068727;28;20453;-74
2021/12/29 04:28:22;;;;;;;0.50;0.10;;;10.10;1.00;;;;;;5052643;28;20445;-73
2021/12/29 04:30:56;;;;;;;0.60;0.20;;;10.10;1.00;;;;;;5052556;28;20462;-74
2021/12/29 04:33:25;;;;;;;3.43;0.53;;;10.10;1.00;;;;;;5052421;28;20446;-74
2021/12/29 04:35:53;;;;;;;0.50;0.10;;;10.10;1.00;;;;;;5055628;28;20823;-75
2021/12/29 04:38:24;;;;;;;0.50;0.10;;;10.00;1.00;;;;;;5072567;28;20449;-75
2021/12/29 04:40:54;;;;;;;0.50;0.20;;;10.10;1.00;;;;;;5072198;28;20469;-75
2021/12/29 04:43:23;;;;;;;0.50;0.10;;;10.00;1.00;;;;;;5072450;28;20833;-75
2021/12/29 04:45:52;;;;;;;1.33;0.53;;;10.10;1.00;;;;;;5071304;28;20478;-74
2021/12/29 04:48:23;;;;;;;0.90;0.20;;;10.10;1.00;;;;;;5052103;28;20445;-75
2021/12/29 04:50:52;;;;;;;0.50;0.10;;;10.10;1.00;;;;;;5052626;28;20462;-75
2021/12/29 04:53:22;;;;;;;0.60;0.30;;;10.10;1.00;;;;;;5052190;28;20435;-74
2021/12/29 04:55:50;;;;;;;0.50;0.10;;;10.10;1.00;;;;;;5054655;28;20446;-75
2021/12/29 04:58:21;;;;;;;0.70;0.20;;;10.10;1.00;;;;;;5071954;28;20445;-74
2021/12/29 05:00:51;;;;;;;0.50;0.10;;;10.00;1.00;;;;;;5071661;28;20473;-74
2021/12/29 05:03:21;;;;;;;0.60;0.30;;;10.00;1.00;;;;;;5068165;28;20470;-74
2021/12/29 05:08:24;;;;;;;0.50;0.20;;;10.10;1.00;;;;;;5052257;28;20446;-74
2021/12/29 05:08:43;;;;;;;0.50;0.10;;;10.00;1.00;;;;;;5052638;28;20541;-74
2021/12/29 05:11:13;;;;;;;0.50;0.10;;;10.00;1.00;;;;;;5052754;28;20466;-74
2021/12/29 05:13:43;;;;;;;0.50;0.10;;;10.00;1.00;;;;;;5057944;28;20939;-73
2021/12/29 05:16:11;;;;;;;0.50;0.10;;;10.10;1.00;;;;;;5071974;28;20437;-74
2021/12/29 05:18:40;;;;;;;0.50;0.10;;;10.10;1.00;;;;;;5072464;28;20481;-73
2021/12/29 05:21:09;;;;;;;0.50;0.10;;;10.00;1.00;;;;;;5071871;28;20461;-73
2021/12/29 05:23:37;;;;;;;0.50;0.10;;;10.00;1.00;;;;;;5066339;28;20466;-73
2021/12/29 05:26:05;;;;;;;0.60;0.33;;;10.00;1.00;;;;;;5051566;28;20445;-73
2021/12/29 05:28:33;;;;;;;0.50;0.20;;;10.00;1.00;;;;;;5052035;28;20453;-76
2021/12/29 05:31:01;;;;;;;0.60;0.20;;;10.00;1.00;;;;;;5054828;28;20484;-73
2021/12/29 05:33:29;;;;;;;0.63;0.20;;;10.10;1.00;;;;;;5066500;28;20796;-74
2021/12/29 05:35:58;;;;;;;0.50;0.10;;;10.10;1.00;;;;;;5063177;28;20538;-74
2021/12/29 05:38:26;;;;;;;0.60;0.30;;;10.10;1.00;;;;;;5071430;28;20448;-74
2021/12/29 05:40:54;;;;;;;0.60;0.10;;;10.10;1.00;;;;;;5071228;28;20476;-74
2021/12/29 05:43:22;;;;;;;0.60;0.17;;;10.10;1.00;;;;;;5068792;28;20503;-74
2021/12/29 05:45:51;;;;;;;0.50;0.10;;;10.20;1.00;;;;;;5051153;28;20494;-73
2021/12/29 05:48:19;;;;;;;0.50;0.20;;;10.20;1.00;;;;;;5051382;28;20479;-73
2021/12/29 05:50:47;;;;;;;0.50;0.20;;;10.10;1.00;;;;;;5051439;28;20785;-73
2021/12/29 05:53:17;;;;;;;0.60;0.40;;;10.10;1.00;;;;;;5067429;28;20437;-74
2021/12/29 05:55:45;;;;;;;0.60;0.20;;;10.20;1.00;;;;;;5071421;28;20471;-73
2021/12/29 05:58:12;;;;;;;0.50;0.20;;;10.20;1.00;;;;;;5070641;28;20455;-73
2021/12/29 06:00:41;;;;;;;0.60;0.20;;;10.20;1.00;;;;;;5067356;28;20462;-73
2021/12/29 06:03:09;;;;;;;0.50;0.10;;;10.20;1.00;;;;;;5065757;28;20444;-73
2021/12/29 06:05:38;;;;;;;1.60;0.50;;;10.20;1.00;;;;;;5058160;28;20477;-74
2021/12/29 06:08:07;;;;;;;0.60;0.30;;;10.20;1.00;;;;;;5063082;28;20474;-74
2021/12/29 06:10:36;;;;;;;0.57;0.20;;;10.10;1.00;;;;;;5070443;28;20461;-73
2021/12/29 06:13:04;;;;;;;0.97;0.87;;;10.10;1.00;;;;;;5071916;28;20441;-73
2021/12/29 06:15:32;;;;;;;0.53;0.10;;;10.10;1.00;;;;;;5062786;28;20466;-73
2021/12/29 06:18:00;;;;;;;0.60;0.30;;;10.10;1.00;;;;;;5071430;28;20966;-74
2021/12/29 06:20:28;;;;;;;0.70;0.20;;;10.10;1.00;;;;;;5072036;28;20474;-73
2021/12/29 06:22:56;;;;;;;0.60;0.10;;;10.10;1.00;;;;;;5071466;28;20447;-73
2021/12/29 06:25:29;;;;;;;0.57;0.20;;;10.10;1.00;;;;;;5064171;28;20498;-73
2021/12/29 06:27:58;;;;;;;0.70;0.30;;;10.10;1.00;;;;;;5062811;28;20842;-75
2021/12/29 06:30:26;;;;;;;1.70;0.80;;;10.10;1.00;;;;;;5070937;28;20503;-73
2021/12/29 06:32:53;;;;;;;1.43;0.40;;;10.10;1.00;;;;;;5072920;28;20935;-73
2021/12/29 06:35:21;;;;;;;0.50;0.20;;;10.10;1.00;;;;;;5053180;28;20442;-72
2021/12/29 06:37:49;;;;;;;0.60;0.30;;;10.10;1.00;;;;;;5050982;28;20948;-74
2021/12/29 06:40:19;;;;;;;0.80;0.40;;;;;;;;;;5050916;28;20484;-75
2021/12/29 06:42:47;;;;;;;1.50;1.40;;;10.00;1.00;;;;;;5053999;28;20441;-73
2021/12/29 06:45:16;;;;;;;0.57;0.20;;;10.00;1.00;;;;;;5070332;28;20477;-75
2021/12/29 06:47:44;;;;;;;0.50;0.10;;;10.00;1.00;;;;;;5074877;28;20445;-74
2021/12/29 06:50:12;;;;;;;0.73;0.57;;;10.00;1.00;;;;;;5074540;28;20497;-73
2021/12/29 06:52:39;;;;;;;0.50;0.10;;;10.00;1.00;;;;;;5074429;28;20548;-72
2021/12/29 06:55:09;;;;;;;0.50;0.10;;;10.00;1.00;;;;;;5058699;28;20472;-74
2021/12/29 06:57:37;;;;;;;0.80;0.30;;;10.10;1.00;;;;;;5054469;28;20475;-73
2021/12/29 07:00:07;;;;;;;0.50;0.10;;;10.10;1.00;;;;;;5054605;28;20458;-73
2021/12/29 07:02:36;;;;;;;0.50;0.10;;;10.10;1.00;;;;;;5054589;28;20442;-73
2021/12/29 07:05:06;;;;;;;0.50;0.10;;;10.10;1.00;;;;;;5068973;28;20541;-73
2021/12/29 07:07:35;;;;;;;0.50;0.10;;;10.10;1.00;;;;;;5074313;28;20445;-74
2021/12/29 07:10:04;;;;;;;0.50;0.10;;;10.20;1.00;;;;;;5073977;28;20457;-74
2021/12/29 07:12:32;;;;;;;0.50;0.20;;;10.10;1.00;;;;;;5074469;28;20445;-74
2021/12/29 07:15:00;;;;;;;0.50;0.10;;;10.10;1.00;;;;;;5073351;28;20459;-74
2021/12/29 07:17:28;;;;;;;0.70;0.40;;;10.10;1.00;;;;;;5074070;28;20457;-75
2021/12/29 07:19:57;;;;;;;2.00;1.07;;;10.10;1.00;;;;;;5070403;28;20500;-75
2021/12/29 07:22:25;;;;;;;0.70;0.47;;;10.10;1.00;;;;;;5067367;28;21105;-74
2021/12/29 07:24:53;;;;;;;0.50;0.10;;;10.10;1.00;;;;;;5070164;28;20990;-75
2021/12/29 07:27:21;;;;;;;0.50;0.10;;;10.00;1.00;;;;;;5065368;28;20930;-74
2021/12/29 07:29:49;;;;;;;0.50;0.10;;;10.10;1.00;;;;;;5072988;28;20473;-75
2021/12/29 07:32:17;;;;;;;0.50;0.10;;;10.10;1.00;;;;;;5072134;28;20859;-74
2021/12/29 07:34:44;;;;;;;0.50;0.10;;;10.10;1.00;;;;;;5061252;28;20455;-74
2021/12/29 07:37:14;;;;;;;0.50;0.10;;;10.10;1.00;;;;;;5054154;28;20452;-74
2021/12/29 07:39:42;;;;;;;0.50;0.10;;;10.20;1.00;;;;;;5053606;28;20476;-74
2021/12/29 07:42:10;;;;;;;0.50;0.10;;;10.20;1.00;;;;;;5053726;28;20970;-75
2021/12/29 07:44:39;;;;;;;0.50;0.10;;;10.20;1.00;;;;;;5063888;28;20469;-74
2021/12/29 07:47:07;;;;;;;0.50;0.10;;;10.20;1.00;;;;;;5074041;28;20433;-74
2021/12/29 07:49:35;;;;;;;0.50;0.10;;;10.30;1.00;;;;;;5073312;28;20461;-73
2021/12/29 07:52:03;;;;;;;0.50;0.10;;;10.30;1.00;;;;;;5073949;28;20445;-74
2021/12/29 07:54:33;;;;;;;0.60;0.60;;;10.30;1.00;;;;;;5055444;28;20446;-75
2021/12/29 07:57:01;;;;;;;0.50;0.10;;;10.30;1.00;;;;;;5053453;28;20545;-75
2021/12/29 07:59:29;;;;;;;0.50;0.10;;;10.30;1.00;;;;;;5053554;28;20467;-74
2021/12/29 08:01:56;;;;;;;0.50;0.10;;;10.30;1.00;;;;;;5054924;28;20446;-73
2021/12/29 08:04:24;;;;;;;0.50;0.10;;;10.30;1.00;;;;;;5067293;28;20820;-75
2021/12/29 08:06:52;;;;;;;1.07;1.07;;;10.30;1.00;;;;;;5073369;28;20453;-74
2021/12/29 08:09:20;;;;;;;0.50;0.10;;;10.20;1.00;;;;;;5072980;28;20460;-75
2021/12/29 08:11:50;;;;;;;0.50;0.10;;;10.20;1.00;;;;;;5073320;28;20533;-74
2021/12/29 08:14:18;;;;;;;0.60;0.60;;;10.20;1.00;;;;;;5059436;28;20458;-73
2021/12/29 08:16:46;;;;;;;0.50;0.10;;;10.20;1.00;;;;;;5052861;28;20442;-74
2021/12/29 08:19:15;;;;;;;1.43;0.77;;;10.30;1.00;;;;;;5053258;28;20460;-74
2021/12/29 08:21:44;;;;;;;0.50;0.10;;;10.30;1.00;;;;;;5052916;28;20442;-74
2021/12/29 08:24:12;;;;;;;1.47;1.07;;;10.30;1.00;;;;;;5064572;28;20452;-74
2021/12/29 08:26:40;;;;;;;0.50;0.10;;;10.20;1.00;;;;;;5072078;28;20481;-74
2021/12/29 08:29:09;;;;;;;0.50;0.10;;;10.20;1.00;;;;;;5072162;28;20453;-74
2021/12/29 08:31:37;;;;;;;0.50;0.23;;;10.20;1.00;;;;;;5073078;28;20434;-73
2021/12/29 08:34:05;;;;;;;0.60;0.10;;;10.20;1.00;;;;;;5061451;28;20450;-73
2021/12/29 08:36:33;;;;;;;0.50;0.10;;;10.10;1.00;;;;;;5052859;28;20441;-75
2021/12/29 08:39:01;;;;;;;1.93;1.10;;;10.10;1.00;;;;;;5060158;28;20464;-73
2021/12/29 08:41:29;;;;;;;0.50;0.10;;;10.10;1.00;;;;;;5066489;28;20458;-75
2021/12/29 08:43:57;;;;;;;0.50;0.17;;;10.10;1.00;;;;;;5052042;28;20468;-74
2021/12/29 08:46:26;;;;;;;1.03;0.93;;;10.10;1.00;;;;;;5052172;28;20486;-74
2021/12/29 08:48:54;;;;;;;0.50;0.10;;;10.10;1.00;;;;;;5052316;28;20437;-75
2021/12/29 08:51:22;;;;;;;4.00;0.47;;;10.10;1.00;;;;;;5054275;28;20451;-74
2021/12/29 08:53:51;;;;;;;0.50;0.10;;;10.10;1.00;;;;;;5072125;28;20445;-74
2021/12/29 08:56:19;;;;;;;0.50;0.10;;;10.10;1.00;;;;;;5071673;28;20459;-74
2021/12/29 08:58:47;;;;;;;0.50;0.10;;;10.20;1.00;;;;;;5072142;28;20445;-75
2021/12/29 09:01:15;;;;;;;0.93;0.40;;;10.20;1.00;;;;;;5070929;28;20458;-75
2021/12/29 09:03:45;;;;;;;0.50;0.20;;;10.20;1.00;;;;;;5061080;28;20928;-75
2021/12/29 09:06:13;;;;;;;0.50;0.10;;;10.20;1.00;;;;;;5070269;28;20841;-75
2021/12/29 09:08:41;;;;;;;0.50;0.10;;;10.20;1.00;;;;;;5070663;28;20462;-75
2021/12/29 09:11:10;;;;;;;0.83;0.20;;;10.20;1.00;;;;;;5071382;28;20469;-75
2021/12/29 09:13:38;;;;;;;0.50;0.10;;;10.20;1.00;;;;;;5057338;28;20486;-75
2021/12/29 09:16:07;;;;;;;1.03;0.93;;;10.10;1.00;;;;;;5071639;28;20845;-76
2021/12/29 09:18:36;;;;;;;0.50;0.10;;;10.20;1.00;;;;;;5071978;28;20444;-76
2021/12/29 09:21:12;;;;;;;0.50;0.20;;;10.20;1.00;;;;;;5071755;28;20461;-75
2021/12/29 09:23:41;;;;;;;0.53;0.10;;;10.20;1.00;;;;;;5052036;28;20446;-74
2021/12/29 09:26:10;;;;;;;0.50;0.10;;;10.20;1.00;;;;;;5053829;28;20482;-75
2021/12/29 09:28:39;;;;;;;0.50;0.10;;;10.20;1.00;;;;;;5051986;28;20540;-76
2021/12/29 09:31:07;;;;;;;0.50;0.10;;;10.30;1.00;;;;;;5051500;28;20478;-75
2021/12/29 09:33:38;;;;;;;0.50;0.10;;;10.30;1.00;;;;;;5071759;28;20454;-75
2021/12/29 09:36:08;;;;;;;0.50;0.10;;;10.30;1.00;;;;;;5073087;28;20449;-75
2021/12/29 09:38:39;;;;;;;0.50;0.10;;;10.40;1.00;;;;;;5072948;28;20807;-75
2021/12/29 09:41:09;;;;;;;0.50;0.20;;;10.40;1.00;;;;;;5108231;22;20901;-75
2021/12/29 09:43:38;;;;;;;0.50;0.10;;;10.40;1.00;;;;;;5092249;28;20542;-75
2021/12/29 09:46:06;;;;;;;0.60;0.20;;;10.40;1.00;;;;;;5092039;28;20516;-77
2021/12/29 09:48:35;;;;;;;0.50;0.10;;;10.40;1.00;;;;;;5092377;28;20487;-75
2021/12/29 09:51:05;;;;;;;2.30;0.97;;;10.40;1.00;;;;;;5092420;28;20456;-75
2021/12/29 09:53:36;;;;;;;0.67;0.57;;;10.30;1.00;;;;;;5073307;28;20452;-75
2021/12/29 09:56:09;;;;;;;0.50;0.10;;;10.40;1.00;;;;;;5071666;28;20495;-76
2021/12/29 09:58:38;;;;;;;0.50;0.10;;;10.40;1.00;;;;;;5074176;28;20484;-77
2021/12/29 10:01:07;;;;;;;0.50;0.10;;;10.40;1.00;;;;;;5071826;28;20465;-76
2021/12/29 10:03:36;;;;;;;0.50;0.10;;;10.40;1.00;;;;;;5090950;28;20489;-76
2021/12/29 10:06:07;;;;;;;0.60;0.10;;;10.40;1.00;;;;;;5091648;28;20479;-75
2021/12/29 10:08:39;;;;;;;0.50;0.10;;;10.50;1.00;;;;;;5092266;28;20813;-74
2021/12/29 10:11:10;;;;;;;0.50;0.10;;;10.50;1.00;;;;;;5091783;28;20973;-75
2021/12/29 10:13:41;;;;;;;0.80;0.20;;;10.40;1.00;;;;;;5072644;28;20790;-75
2021/12/29 10:16:12;;;;;;;0.50;0.10;;;10.40;1.00;;;;;;5072673;28;20444;-75
2021/12/29 10:18:41;;;;;;;0.50;0.10;;;10.30;1.00;;;;;;5075553;28;20931;-75
2021/12/29 10:21:12;;;;;;;0.50;0.10;;;10.30;1.00;;;;;;5075436;28;20826;-75
2021/12/29 10:23:43;;;;;;;4.33;4.07;;;10.40;1.00;;;;;;5094695;28;20462;-75
2021/12/29 10:26:33;;;;;;;0.50;0.10;;;10.40;1.00;;;;;;5095742;28;20472;-76
2021/12/29 10:29:07;;;;;;;0.50;0.10;;;10.30;1.00;;;;;;5094763;28;20452;-76
2021/12/29 10:31:38;;;;;;;0.50;0.10;;;10.40;1.00;;;;;;5094293;28;20453;-75
2021/12/29 10:34:08;;;;;;;0.60;0.47;;;10.40;1.00;;;;;;5092318;28;20439;-75
2021/12/29 10:36:41;;;;;;;0.60;0.30;;;10.50;1.00;;;;;;5096770;28;20463;-75
2021/12/29 10:39:14;;;;;;;2.63;1.63;;;10.50;1.00;;;;;;5096986;28;20445;-76
2021/12/29 10:41:49;;;;;;;1.00;0.40;;;10.50;1.00;;;;;;5095309;28;20461;-73
2021/12/29 10:44:18;;;;;;;0.50;0.10;;;10.40;1.00;;;;;;5080978;28;20457;-76
2021/12/29 10:46:46;;;;;;;0.60;0.20;;;10.50;1.00;;;;;;5074780;28;20480;-75
2021/12/29 10:49:14;;;;;;;0.53;0.10;;;10.50;1.00;;;;;;5074814;28;20901;-75
2021/12/29 10:51:43;;;;;;;1.17;0.63;;;10.40;1.00;;;;;;5075196;28;20449;-75
2021/12/29 10:54:16;;;;;;;0.53;0.20;;;10.50;1.00;;;;;;5075745;28;20430;-74
2021/12/29 10:56:47;;;;;;;0.60;0.20;;;10.50;1.00;;;;;;5084093;28;20792;-75
2021/12/29 10:59:23;;;;;;;0.50;0.10;;;10.50;1.00;;;;;;5092542;28;20591;-75
2021/12/29 11:01:53;;;;;;;0.50;0.20;;;10.50;1.00;;;;;;5095451;28;20444;-74
2021/12/29 11:04:23;;;;;;;0.50;0.10;;;10.50;1.00;;;;;;5094381;28;20559;-74
2021/12/29 11:06:56;;;;;;;0.50;0.10;;;10.60;1.00;;;;;;5092581;28;20498;-74
2021/12/29 11:09:32;;;;;;;0.60;0.10;;;10.60;1.00;;;;;;5078672;28;20453;-75
2021/12/29 11:12:02;;;;;;;0.60;0.10;;;10.60;1.00;;;;;;5092970;28;20458;-75
2021/12/29 11:14:32;;;;;;;0.50;0.10;;;10.60;1.00;;;;;;5094799;28;20440;-74
2021/12/29 11:17:07;;;;;;;0.60;0.10;;;10.60;1.00;;;;;;5095858;28;20476;-74
2021/12/29 11:19:35;;;;;;;1.87;1.03;;;10.70;1.00;;;;;;5095290;28;20510;-74
2021/12/29 11:22:11;;;;;;;0.60;0.10;;;10.70;1.00;;;;;;5096118;28;20969;-75
2021/12/29 11:24:41;;;;;;;0.57;0.10;;;10.80;1.00;;;;;;5082074;28;20469;-74
2021/12/29 11:27:12;;;;;;;0.53;0.10;;;10.80;1.00;;;;;;5074877;28;20557;-74
2021/12/29 11:29:53;;;;;;;0.60;0.20;;;10.80;1.00;;;;;;5074567;28;20470;-73
2021/12/29 11:32:24;;;;;;;0.60;0.20;;;10.80;1.00;;;;;;5074819;28;20441;-74
2021/12/29 11:35:04;;;;;;;0.60;0.20;;;10.80;1.00;;;;;;5093357;28;20451;-74
2021/12/29 11:37:32;;;;;;;0.60;0.20;;;10.80;1.00;;;;;;5095386;28;20432;-74
2021/12/29 11:40:02;;;;;;;0.60;0.30;;;10.90;1.00;;;;;;5095485;28;20475;-74
2021/12/29 11:42:30;;;;;;;0.60;0.17;;;10.80;1.00;;;;;;5095135;28;20436;-75
2021/12/29 11:44:58;;;;;;;0.57;0.10;;;10.80;1.00;;;;;;5077538;28;20450;-76
2021/12/29 11:47:26;;;;;;;0.60;0.30;;;10.90;1.00;;;;;;5077647;28;20480;-75
2021/12/29 11:49:54;;;;;;;0.60;0.10;;;10.90;1.00;;;;;;5093686;28;20551;-74
2021/12/29 11:52:35;;;;;;;0.70;0.63;;;10.90;1.00;;;;;;5094310;28;20445;-76
2021/12/29 11:55:11;;;;;;;1.83;0.70;;;10.90;1.00;;;;;;5093487;28;20474;-75
2021/12/29 11:57:39;;;;;;;0.60;0.10;;;10.90;1.00;;;;;;5094653;28;20440;-76
2021/12/29 12:00:11;;;;;;;0.60;0.10;;;11.00;1.00;;;;;;5094098;28;20468;-75
2021/12/29 12:02:40;;;;;;;0.60;0.20;;;11.00;1.00;;;;;;5094139;28;20454;-74
2021/12/29 12:05:10;;;;;;;10.33;0.60;;;11.00;1.00;;;;;;5075025;28;20548;-77
2021/12/29 12:07:38;;;;;;;0.60;0.10;;;11.10;1.00;;;;;;5073160;28;20476;-76
2021/12/29 12:10:14;;;;;;;0.60;0.10;;;11.00;1.00;;;;;;5074941;28;20858;-74
2021/12/29 12:12:45;;;;;;;0.63;0.33;;;11.00;1.00;;;;;;5086406;28;20444;-74
2021/12/29 12:15:14;;;;;;;1.10;0.60;;;11.00;1.00;;;;;;5077253;28;21023;-75
2021/12/29 12:17:43;;;;;;;0.60;0.23;;;;;;;;;;5093340;28;20951;-75
2021/12/29 12:20:14;;;;;;;0.60;0.20;;;11.00;1.00;;;;;;5093653;28;20464;-73
2021/12/29 12:22:46;;;;;;;0.60;0.10;;;11.00;1.00;;;;;;5093159;28;20808;-75
2021/12/29 12:25:19;;;;;;;0.60;0.10;;;11.00;1.00;;;;;;5074562;28;20471;-75
2021/12/29 12:27:50;;;;;;;0.60;0.10;;;;;;;;;;5073193;28;20485;-73
2021/12/29 12:30:22;;;;;;;0.60;0.10;;;11.00;1.00;;;;;;5079687;28;20472;-75
2021/12/29 12:32:53;;;;;;;2.53;0.63;;;11.00;1.00;;;;;;5085927;28;20465;-75
2021/12/29 12:35:32;;;;;;;0.60;0.27;;;11.00;1.00;;;;;;5090737;28;20980;-74
2021/12/29 12:38:13;;;;;;;0.60;0.20;;;10.90;1.00;;;;;;5091521;28;20444;-75
2021/12/29 12:41:00;;;;;;;0.60;0.10;;;10.90;1.00;;;;;;5091783;28;20500;-75
2021/12/29 12:43:29;;;;;;;0.87;0.20;;;11.00;1.00;;;;;;5091769;28;20445;-75
2021/12/29 12:45:57;;;;;;;0.53;0.10;;;11.00;1.00;;;;;;5090962;28;20437;-75
2021/12/29 12:48:29;;;;;;;0.60;0.20;;;11.00;1.00;;;;;;5088215;28;20488;-76
2021/12/29 12:51:03;;;;;;;0.60;0.20;;;11.00;1.00;;;;;;5092999;28;20793;-77
2021/12/29 12:53:33;;;;;;;2.40;1.90;;;11.00;1.00;;;;;;5090937;28;20445;-76
2021/12/29 12:56:05;;;;;;;0.60;0.10;;;11.00;1.00;;;;;;5092297;28;20456;-77
2021/12/29 12:58:38;;;;;;;0.60;0.10;;;11.00;1.00;;;;;;5094270;28;20470;-77
2021/12/29 13:01:09;;;;;;;0.60;0.10;;;11.10;1.00;;;;;;5093939;28;20495;-76
2021/12/29 13:03:37;;;;;;;0.60;0.10;;;11.10;1.00;;;;;;5089597;28;20460;-76
2021/12/29 13:06:10;;;;;;;0.60;0.10;;;11.20;1.00;;;;;;5074977;28;20901;-76
2021/12/29 13:08:40;;;;;;;0.60;0.10;;;11.30;1.00;;;;;;5073279;28;21129;-77
2021/12/29 13:11:12;;;;;;;0.60;0.10;;;11.40;1.00;;;;;;5072995;28;20511;-75
2021/12/29 13:13:44;;;;;;;0.60;0.10;;;11.40;1.00;;;;;;5077610;28;20826;-76
2021/12/29 13:16:14;;;;;;;0.60;0.20;;;11.40;1.00;;;;;;5094913;28;20476;-75
2021/12/29 13:18:42;;;;;;;0.60;0.10;;;11.40;1.00;;;;;;5093451;28;20444;-76